Time;durP1;ratioP1;P1;durP2;ratioP2;P2;SDS_P1;SDS_P2;PMS_P1;PMS_P2;Temp;Humidity;BMP_temperature;BMP_pressure;BME280_temperature;BME280_humidity;BME280_pressure;Samples;Min_cycle;Max_cycle;Signal;HPM_P1;HPM_P2
2023/05/26 00:00:59;;;;;;;21.88;4.45;;;12.30;85.80;;;;;;5163251;27;45273;-69
2023/05/26 00:03:28;;;;;;;22.67;4.72;;;12.30;86.10;;;;;;5164637;27;45487;-69
2023/05/26 00:05:55;;;;;;;34.00;5.43;;;12.30;86.80;;;;;;5162419;27;45481;-69
2023/05/26 00:08:22;;;;;;;23.05;4.70;;;12.10;87.00;;;;;;5163505;27;45343;-68
2023/05/26 00:10:49;;;;;;;24.08;4.60;;;12.00;87.40;;;;;;5163392;27;45353;-69
2023/05/26 00:13:16;;;;;;;23.63;4.72;;;12.10;87.10;;;;;;5157192;27;45407;-68
2023/05/26 00:15:43;;;;;;;26.15;4.15;;;12.10;87.40;;;;;;5162311;27;45426;-67
2023/05/26 00:18:09;;;;;;;29.70;4.50;;;12.00;87.00;;;;;;5152711;27;45259;-67
2023/05/26 00:20:38;;;;;;;24.30;4.60;;;12.00;88.00;;;;;;5158510;27;45457;-68
2023/05/26 00:23:05;;;;;;;26.27;4.30;;;11.90;87.50;;;;;;5163625;27;45363;-68
2023/05/26 00:25:31;;;;;;;22.83;4.00;;;11.90;89.40;;;;;;5158757;27;46286;-67
2023/05/26 00:27:58;;;;;;;20.42;3.72;;;11.90;87.40;;;;;;5161890;27;45354;-67
2023/05/26 00:30:25;;;;;;;21.30;4.00;;;11.90;87.40;;;;;;5163746;27;45540;-67
2023/05/26 00:32:52;;;;;;;21.75;4.32;;;11.90;87.40;;;;;;5164805;27;45398;-67
2023/05/26 00:35:18;;;;;;;19.00;4.05;;;11.80;87.80;;;;;;5167268;27;48147;-68
2023/05/26 00:37:46;;;;;;;24.67;3.50;;;11.70;88.60;;;;;;5166230;27;45439;-68
2023/05/26 00:40:14;;;;;;;25.05;4.75;;;11.70;88.10;;;;;;5164034;27;45498;-67
2023/05/26 00:42:40;;;;;;;26.13;4.18;;;11.60;89.00;;;;;;5168309;27;45302;-69
2023/05/26 00:45:08;;;;;;;25.02;3.80;;;11.60;89.10;;;;;;5165477;27;45569;-69
2023/05/26 00:47:35;;;;;;;27.83;4.82;;;11.60;88.70;;;;;;5166908;27;45857;-69
2023/05/26 00:50:02;;;;;;;25.67;4.78;;;11.60;89.20;;;;;;5164788;27;45347;-69
2023/05/26 00:52:30;;;;;;;16.27;3.60;;;11.50;89.50;;;;;;5167732;27;45539;-69
2023/05/26 00:54:59;;;;;;;19.15;4.45;;;11.50;90.10;;;;;;5163592;27;46362;-69
2023/05/26 00:57:27;;;;;;;25.35;4.63;;;11.40;90.00;;;;;;5165304;27;45218;-69
2023/05/26 00:59:55;;;;;;;33.40;6.13;;;11.40;90.20;;;;;;5156145;27;45444;-68
2023/05/26 01:02:22;;;;;;;26.20;4.78;;;11.30;90.40;;;;;;5160764;27;45410;-68
2023/05/26 01:04:52;;;;;;;18.10;3.70;;;11.30;90.30;;;;;;5152792;27;46551;-68
2023/05/26 01:07:19;;;;;;;22.88;3.80;;;11.40;90.40;;;;;;5153694;27;45556;-68
2023/05/26 01:09:46;;;;;;;21.90;3.85;;;11.30;90.40;;;;;;5165851;27;45438;-68
2023/05/26 01:12:21;;;;;;;22.52;3.97;;;11.30;90.50;;;;;;5166177;27;45491;-68
2023/05/26 01:14:54;;;;;;;16.05;3.97;;;11.20;90.60;;;;;;5156140;27;48603;-69
2023/05/26 01:17:24;;;;;;;24.05;3.60;;;11.20;91.00;;;;;;5165945;27;45286;-69
2023/05/26 01:20:09;;;;;;;24.40;4.18;;;11.10;91.00;;;;;;5165367;27;45254;-68
2023/05/26 01:22:55;;;;;;;21.17;4.40;;;11.10;91.20;;;;;;5167676;27;45371;-68
2023/05/26 01:25:36;;;;;;;21.63;3.85;;;11.00;91.70;;;;;;5150501;27;45317;-68
2023/05/26 01:28:12;;;;;;;21.83;4.10;;;11.00;91.20;;;;;;5160498;27;45359;-69
2023/05/26 01:30:39;;;;;;;26.42;4.30;;;11.00;91.30;;;;;;5154938;27;45346;-69
2023/05/26 01:33:06;;;;;;;27.00;4.28;;;11.00;91.70;;;;;;5164953;27;45181;-69
2023/05/26 01:35:33;;;;;;;20.80;4.35;;;11.00;91.20;;;;;;5166309;27;46424;-69
2023/05/26 01:38:01;;;;;;;18.58;3.20;;;10.90;91.40;;;;;;5164282;27;45622;-69
2023/05/26 01:40:29;;;;;;;24.80;4.30;;;10.90;91.60;;;;;;5166657;27;45263;-68
2023/05/26 01:43:01;;;;;;;24.55;3.75;;;10.90;91.50;;;;;;5165901;27;45359;-68
2023/05/26 01:45:35;;;;;;;19.60;3.97;;;10.80;91.80;;;;;;5157217;27;48474;-69
2023/05/26 01:48:03;;;;;;;13.88;3.75;;;10.80;91.60;;;;;;5165158;27;45318;-69
2023/05/26 01:50:35;;;;;;;23.13;3.50;;;10.70;91.90;;;;;;5163227;27;45419;-68
2023/05/26 01:53:06;;;;;;;22.38;3.78;;;10.70;91.80;;;;;;5164562;27;45563;-68
2023/05/26 01:55:36;;;;;;;20.77;3.65;;;10.60;91.80;;;;;;5161603;27;45400;-68
2023/05/26 01:58:03;;;;;;;14.43;3.45;;;10.50;92.30;;;;;;5165433;27;45278;-68
2023/05/26 02:00:31;;;;;;;27.33;4.63;;;10.50;92.40;;;;;;5158407;27;45303;-68
2023/05/26 02:02:58;;;;;;;17.40;3.20;;;10.40;92.50;;;;;;5162255;27;45338;-69
2023/05/26 02:05:25;;;;;;;32.00;3.65;;;10.40;92.60;;;;;;5158925;27;46160;-69
2023/05/26 02:07:52;;;;;;;24.00;4.22;;;10.50;92.80;;;;;;5165380;27;45332;-69
2023/05/26 02:10:19;;;;;;;18.38;3.35;;;10.50;92.60;;;;;;5167050;27;45277;-68
2023/05/26 02:12:46;;;;;;;18.45;2.85;;;10.40;92.90;;;;;;5164571;27;45411;-68
2023/05/26 02:15:13;;;;;;;16.95;3.15;;;10.40;92.70;;;;;;5166213;27;48114;-68
2023/05/26 02:17:41;;;;;;;18.05;3.67;;;10.50;92.60;;;;;;5161502;27;46105;-69
2023/05/26 02:20:09;;;;;;;11.05;2.60;;;10.40;92.80;;;;;;5158004;27;45294;-69
2023/05/26 02:22:36;;;;;;;21.48;3.58;;;10.30;93.10;;;;;;5169791;27;45705;-69
2023/05/26 02:25:03;;;;;;;28.33;4.25;;;10.20;93.30;;;;;;5166139;27;45263;-69
2023/05/26 02:27:30;;;;;;;21.65;3.28;;;10.30;93.20;;;;;;5166103;27;45730;-68
2023/05/26 02:29:57;;;;;;;18.33;3.85;;;10.10;93.60;;;;;;5163050;27;45317;-69
2023/05/26 02:32:24;;;;;;;25.20;3.78;;;10.10;93.90;;;;;;5159703;27;45533;-68
2023/05/26 02:34:52;;;;;;;22.58;3.72;;;10.10;93.70;;;;;;5157035;27;48633;-68
2023/05/26 02:37:19;;;;;;;20.38;3.15;;;10.20;93.70;;;;;;5163936;27;45348;-69
2023/05/26 02:39:46;;;;;;;24.45;4.28;;;10.10;94.10;;;;;;5157563;27;45502;-68
2023/05/26 02:42:12;;;;;;;33.60;3.65;;;10.00;94.00;;;;;;5165777;27;45564;-68
2023/05/26 02:44:39;;;;;;;27.95;3.10;;;10.00;94.20;;;;;;5165177;27;47097;-68
2023/05/26 02:47:06;;;;;;;23.85;3.47;;;10.00;94.20;;;;;;5162499;27;45524;-68
2023/05/26 02:49:33;;;;;;;22.40;4.03;;;10.00;94.30;;;;;;5157377;27;45304;-68
2023/05/26 02:52:01;;;;;;;24.63;4.95;;;9.90;94.70;;;;;;5165793;27;45613;-69
2023/05/26 02:54:28;;;;;;;20.25;3.08;;;9.90;95.30;;;;;;5158297;27;47494;-68
2023/05/26 02:56:55;;;;;;;24.95;3.58;;;9.80;95.30;;;;;;5165348;27;45245;-68
2023/05/26 02:59:21;;;;;;;22.55;3.60;;;9.80;95.40;;;;;;5160012;27;45400;-68
2023/05/26 03:01:48;;;;;;;19.98;3.92;;;9.70;95.80;;;;;;5171465;27;45404;-69
2023/05/26 03:04:15;;;;;;;17.85;2.88;;;9.70;95.60;;;;;;5163518;27;46053;-68
2023/05/26 03:06:42;;;;;;;23.38;3.53;;;9.60;96.50;;;;;;5164962;27;45376;-68
2023/05/26 03:09:10;;;;;;;23.65;4.45;;;9.60;96.60;;;;;;5159909;27;45386;-68
2023/05/26 03:11:37;;;;;;;22.35;3.85;;;9.50;96.60;;;;;;5165274;27;45296;-68
2023/05/26 03:14:04;;;;;;;17.55;3.53;;;9.50;96.80;;;;;;5158851;27;47412;-68
2023/05/26 03:16:30;;;;;;;19.17;3.42;;;9.50;96.90;;;;;;5162830;27;45495;-69
2023/05/26 03:18:57;;;;;;;23.60;3.92;;;9.40;97.10;;;;;;5161277;27;45682;-68
2023/05/26 03:21:24;;;;;;;21.70;3.45;;;9.40;97.30;;;;;;5162104;27;45479;-68
2023/05/26 03:23:51;;;;;;;20.35;2.95;;;9.50;97.30;;;;;;5164373;27;47273;-68
2023/05/26 03:26:20;;;;;;;28.35;4.00;;;9.40;97.40;;;;;;5161428;27;45467;-69
2023/05/26 03:28:47;;;;;;;17.95;3.47;;;9.30;97.60;;;;;;5156900;27;45379;-68
2023/05/26 03:31:14;;;;;;;16.80;3.92;;;9.40;97.70;;;;;;5157719;27;45358;-68
2023/05/26 03:33:41;;;;;;;25.23;3.20;;;9.30;98.00;;;;;;5152535;27;47373;-68
2023/05/26 03:36:08;;;;;;;27.75;3.83;;;9.30;97.90;;;;;;5154932;27;45496;-68
2023/05/26 03:38:35;;;;;;;13.57;3.22;;;9.30;98.50;;;;;;5156002;27;45585;-68
2023/05/26 03:41:02;;;;;;;24.63;3.97;;;9.30;98.40;;;;;;5159811;27;45740;-68
2023/05/26 03:43:30;;;;;;;21.63;3.58;;;9.40;99.10;;;;;;5159923;27;46980;-68
2023/05/26 03:45:57;;;;;;;22.75;3.45;;;10.60;94.40;;;;;;5152265;27;45363;-68
2023/05/26 03:48:23;;;;;;;19.08;3.60;;;11.30;92.70;;;;;;5161572;27;45460;-68
2023/05/26 03:50:50;;;;;;;18.48;3.65;;;11.70;91.30;;;;;;5157097;27;45548;-68
2023/05/26 03:53:17;;;;;;;17.25;3.47;;;11.70;90.90;;;;;;5153910;27;47413;-68
2023/05/26 03:55:44;;;;;;;27.58;5.63;;;11.70;91.10;;;;;;5149202;27;45325;-69
2023/05/26 03:58:12;;;;;;;25.27;4.07;;;11.50;91.70;;;;;;5149041;27;45545;-68
2023/05/26 04:00:40;;;;;;;13.88;3.42;;;11.20;92.80;;;;;;5148976;27;45542;-68
2023/05/26 04:03:07;;;;;;;14.15;3.17;;;11.20;92.60;;;;;;5159270;27;48531;-68
2023/05/26 04:05:34;;;;;;;22.50;3.53;;;11.20;92.50;;;;;;5159996;27;45271;-68
2023/05/26 04:08:00;;;;;;;28.05;4.22;;;11.20;92.60;;;;;;5164079;27;45379;-69
2023/05/26 04:10:27;;;;;;;25.58;3.58;;;11.30;92.50;;;;;;5166098;27;45370;-69
2023/05/26 04:12:54;;;;;;;27.38;3.95;;;11.20;93.10;;;;;;5162174;27;45282;-68
2023/05/26 04:15:21;;;;;;;16.35;3.50;;;11.40;92.50;;;;;;5160767;27;45340;-68
2023/05/26 04:17:50;;;;;;;25.55;4.22;;;11.20;92.60;;;;;;5165536;27;45413;-68
2023/05/26 04:20:17;;;;;;;27.05;4.40;;;11.40;92.40;;;;;;5167917;27;45226;-68
2023/05/26 04:22:43;;;;;;;16.60;3.70;;;11.30;92.60;;;;;;5165667;27;46153;-68
2023/05/26 04:25:11;;;;;;;27.98;4.75;;;11.30;92.70;;;;;;5159243;27;45300;-68
2023/05/26 04:27:39;;;;;;;27.35;4.35;;;11.20;92.90;;;;;;5167614;27;45486;-68
2023/05/26 04:30:07;;;;;;;23.02;4.30;;;11.40;92.40;;;;;;5165306;27;45368;-68
2023/05/26 04:32:35;;;;;;;25.15;4.55;;;11.40;92.90;;;;;;5161425;27;48731;-68
2023/05/26 04:35:05;;;;;;;24.55;4.78;;;11.40;92.70;;;;;;5166165;27;45346;-68
2023/05/26 04:37:33;;;;;;;24.73;4.88;;;11.20;92.90;;;;;;5162971;27;45373;-68
2023/05/26 04:40:00;;;;;;;29.63;5.20;;;11.50;92.30;;;;;;5166938;27;45370;-68
2023/05/26 04:42:27;;;;;;;26.83;4.55;;;11.50;92.30;;;;;;5168050;27;45328;-68
2023/05/26 04:44:55;;;;;;;31.50;7.00;;;11.50;93.00;;;;;;5159194;27;45322;-68
2023/05/26 04:47:22;;;;;;;27.63;6.07;;;11.50;92.20;;;;;;5161720;27;45408;-68
2023/05/26 04:49:48;;;;;;;34.20;6.32;;;11.60;92.30;;;;;;5162374;27;45435;-69
2023/05/26 04:52:17;;;;;;;22.95;6.07;;;11.50;93.50;;;;;;5159615;27;46295;-68
2023/05/26 04:54:43;;;;;;;32.08;7.30;;;11.50;92.70;;;;;;5158784;27;45472;-68
2023/05/26 04:57:10;;;;;;;33.40;6.50;;;11.50;92.10;;;;;;5155007;27;45463;-68
2023/05/26 04:59:38;;;;;;;30.52;6.18;;;11.40;92.10;;;;;;5160800;27;45254;-68
2023/05/26 05:02:05;;;;;;;31.80;6.68;;;11.50;92.20;;;;;;5157390;27;48238;-68
2023/05/26 05:04:32;;;;;;;31.17;6.72;;;11.40;92.70;;;;;;5169826;27;45376;-69
2023/05/26 05:06:59;;;;;;;25.52;6.38;;;11.70;92.00;;;;;;5156989;27;45531;-68
2023/05/26 05:09:27;;;;;;;39.17;7.88;;;11.60;92.20;;;;;;5159694;27;45447;-68
2023/05/26 05:11:54;;;;;;;30.90;7.03;;;11.50;92.00;;;;;;5152352;27;46086;-68
2023/05/26 05:14:20;;;;;;;30.95;7.57;;;11.60;92.30;;;;;;5161608;27;45640;-68
2023/05/26 05:16:47;;;;;;;27.30;7.05;;;11.60;92.10;;;;;;5161172;27;45429;-68
2023/05/26 05:19:14;;;;;;;33.03;6.57;;;11.70;92.20;;;;;;5159392;27;45448;-68
2023/05/26 05:21:41;;;;;;;31.27;6.95;;;11.70;92.00;;;;;;5159183;27;46140;-68
2023/05/26 05:24:08;;;;;;;27.23;7.25;;;12.30;92.30;;;;;;5188124;27;46171;-69
2023/05/26 05:26:37;;;;;;;24.38;5.95;;;13.70;88.10;;;;;;5159363;27;45381;-69
2023/05/26 05:29:04;;;;;;;28.27;6.47;;;14.10;85.50;;;;;;5165106;27;45600;-68
2023/05/26 05:31:30;;;;;;;24.55;5.63;;;14.30;84.50;;;;;;5164524;27;45468;-69
2023/05/26 05:33:57;;;;;;;24.42;6.05;;;14.40;83.40;;;;;;5161677;27;45335;-69
2023/05/26 05:36:24;;;;;;;25.65;6.28;;;14.40;82.60;;;;;;5158646;27;45517;-68
2023/05/26 05:38:51;;;;;;;19.17;5.35;;;14.40;83.40;;;;;;5159252;27;45519;-69
2023/05/26 05:41:18;;;;;;;21.85;5.93;;;14.50;82.80;;;;;;5161630;27;46307;-68
2023/05/26 05:43:47;;;;;;;18.08;5.22;;;14.50;82.40;;;;;;5166016;27;45255;-69
2023/05/26 05:46:13;;;;;;;24.92;5.45;;;14.50;82.80;;;;;;5165534;27;45334;-68
2023/05/26 05:48:42;;;;;;;27.33;5.72;;;14.70;82.00;;;;;;5166301;27;45387;-69
2023/05/26 05:51:09;;;;;;;21.27;5.93;;;14.60;82.20;;;;;;5164659;27;47329;-69
2023/05/26 05:53:35;;;;;;;30.73;6.47;;;14.90;81.60;;;;;;5166729;27;45406;-69
2023/05/26 05:56:02;;;;;;;23.48;6.35;;;14.80;81.50;;;;;;5166822;27;45410;-65
2023/05/26 05:58:29;;;;;;;31.40;6.75;;;14.50;83.10;;;;;;5167145;27;45346;-66
2023/05/26 06:00:57;;;;;;;21.70;5.45;;;14.50;83.80;;;;;;5156305;27;46986;-67
2023/05/26 06:03:24;;;;;;;30.42;6.75;;;14.70;84.70;;;;;;5154881;27;45399;-66
2023/05/26 06:05:51;;;;;;;23.35;5.10;;;14.80;86.60;;;;;;5158876;27;45379;-68
2023/05/26 06:08:18;;;;;;;18.05;5.78;;;14.80;82.90;;;;;;5158427;27;45289;-66
2023/05/26 06:10:45;;;;;;;15.60;5.15;;;14.90;82.40;;;;;;5158583;27;45316;-68
2023/05/26 06:13:12;;;;;;;14.73;4.78;;;14.90;81.50;;;;;;5164812;27;45276;-67
2023/05/26 06:15:39;;;;;;;26.25;6.28;;;15.20;82.40;;;;;;5166292;27;45322;-67
2023/05/26 06:18:07;;;;;;;21.45;5.28;;;15.30;81.00;;;;;;5158700;27;45332;-67
2023/05/26 06:20:34;;;;;;;25.73;5.18;;;15.40;80.90;;;;;;5155243;27;47085;-67
2023/05/26 06:23:00;;;;;;;23.55;6.03;;;15.30;80.30;;;;;;5156275;27;45293;-66
2023/05/26 06:25:27;;;;;;;20.58;5.07;;;15.40;79.70;;;;;;5164914;27;45332;-67
2023/05/26 06:27:54;;;;;;;30.10;6.28;;;15.40;80.10;;;;;;5155536;27;45440;-67
2023/05/26 06:30:20;;;;;;;23.73;6.07;;;15.40;80.00;;;;;;5161040;27;47149;-67
2023/05/26 06:32:47;;;;;;;24.25;5.50;;;15.50;79.80;;;;;;5147905;27;45380;-68
2023/05/26 06:35:15;;;;;;;22.58;5.90;;;15.40;80.10;;;;;;5159529;27;45414;-68
2023/05/26 06:37:42;;;;;;;18.48;5.50;;;15.50;79.80;;;;;;5162879;27;45393;-67
2023/05/26 06:40:09;;;;;;;21.92;5.78;;;15.50;79.40;;;;;;5165572;27;46570;-68
2023/05/26 06:42:36;;;;;;;22.98;5.70;;;15.50;78.90;;;;;;5153757;27;45494;-67
2023/05/26 06:45:03;;;;;;;23.00;6.28;;;15.50;79.20;;;;;;5157668;27;45382;-66
2023/05/26 06:47:30;;;;;;;25.15;6.97;;;15.50;79.50;;;;;;5153720;27;45264;-68
2023/05/26 06:49:57;;;;;;;24.77;6.80;;;15.60;79.00;;;;;;5162027;27;46514;-68
2023/05/26 06:52:25;;;;;;;25.48;7.32;;;15.60;78.80;;;;;;5162407;27;45263;-68
2023/05/26 06:54:52;;;;;;;26.73;6.78;;;15.50;79.20;;;;;;5160085;27;45296;-69
2023/05/26 06:57:18;;;;;;;23.95;6.80;;;15.50;79.70;;;;;;5157658;27;45330;-68
2023/05/26 06:59:45;;;;;;;25.48;7.55;;;15.50;79.60;;;;;;5151692;27;47557;-69
2023/05/26 07:02:12;;;;;;;17.17;6.43;;;15.50;79.90;;;;;;5161006;27;45228;-68
2023/05/26 07:04:39;;;;;;;25.88;7.72;;;15.60;81.50;;;;;;5150069;27;45427;-68
2023/05/26 07:07:05;;;;;;;25.13;7.38;;;15.70;79.60;;;;;;5158161;27;45650;-67
2023/05/26 07:09:34;;;;;;;29.58;8.48;;;15.70;79.40;;;;;;5161757;27;46601;-67
2023/05/26 07:12:00;;;;;;;21.17;7.70;;;15.60;78.50;;;;;;5157105;27;45282;-67
2023/05/26 07:14:27;;;;;;;27.52;8.35;;;15.60;79.10;;;;;;5160113;27;45307;-67
2023/05/26 07:16:54;;;;;;;26.77;7.05;;;15.60;78.80;;;;;;5164354;27;45352;-68
2023/05/26 07:19:21;;;;;;;22.58;7.50;;;15.60;78.20;;;;;;5157955;27;47673;-67
2023/05/26 07:21:47;;;;;;;24.02;7.78;;;15.60;78.70;;;;;;5160509;27;45412;-67
2023/05/26 07:24:14;;;;;;;29.00;7.50;;;15.70;78.50;;;;;;5165048;27;45265;-68
2023/05/26 07:26:42;;;;;;;23.92;7.25;;;15.70;78.20;;;;;;5145767;27;45581;-67
2023/05/26 07:29:09;;;;;;;22.08;6.45;;;15.60;77.60;;;;;;5162356;27;46023;-67
2023/05/26 07:31:36;;;;;;;30.15;7.40;;;15.50;78.90;;;;;;5161718;27;45492;-68
2023/05/26 07:34:02;;;;;;;25.23;5.90;;;15.30;77.50;;;;;;5161067;27;45405;-68
2023/05/26 07:36:29;;;;;;;21.00;5.97;;;15.30;80.70;;;;;;5167148;27;45297;-68
2023/05/26 07:38:56;;;;;;;26.50;6.05;;;15.60;78.30;;;;;;5165861;27;45462;-68
2023/05/26 07:41:23;;;;;;;27.02;7.32;;;15.90;77.00;;;;;;5165110;27;45401;-68
2023/05/26 07:43:51;;;;;;;19.50;6.45;;;16.10;76.20;;;;;;5163642;27;45465;-68
2023/05/26 07:46:18;;;;;;;15.73;5.82;;;16.20;76.00;;;;;;5168520;27;45388;-68
2023/05/26 07:48:44;;;;;;;21.52;5.95;;;16.10;76.40;;;;;;5168961;27;47481;-69
2023/05/26 07:51:11;;;;;;;16.75;5.13;;;16.00;76.10;;;;;;5169209;27;45450;-68
2023/05/26 07:53:38;;;;;;;19.27;5.40;;;16.10;75.60;;;;;;5169454;27;45425;-68
2023/05/26 07:56:05;;;;;;;21.50;5.30;;;16.40;75.10;;;;;;5167797;27;45562;-67
2023/05/26 07:58:31;;;;;;;25.60;6.15;;;16.60;74.90;;;;;;5168930;27;46075;-67
2023/05/26 08:00:59;;;;;;;15.95;5.50;;;16.50;73.70;;;;;;5163503;27;45355;-67
2023/05/26 08:03:26;;;;;;;21.42;6.13;;;16.30;75.00;;;;;;5169384;27;45424;-67
2023/05/26 08:05:53;;;;;;;16.90;5.47;;;16.30;75.00;;;;;;5168460;27;45569;-67
2023/05/26 08:08:20;;;;;;;21.05;5.38;;;16.30;75.70;;;;;;5168371;27;48128;-67
2023/05/26 08:10:47;;;;;;;26.40;5.65;;;16.30;75.40;;;;;;5168266;27;45396;-67
2023/05/26 08:13:13;;;;;;;25.10;5.30;;;16.30;75.90;;;;;;5166528;27;45291;-67
2023/05/26 08:15:40;;;;;;;23.77;6.15;;;16.10;76.30;;;;;;5163197;27;45439;-68
2023/05/26 08:18:08;;;;;;;25.58;5.50;;;16.20;76.00;;;;;;5164905;27;45399;-67
2023/05/26 08:20:35;;;;;;;25.30;6.05;;;16.00;77.50;;;;;;5166136;27;45597;-68
2023/05/26 08:23:02;;;;;;;24.95;5.57;;;15.80;77.40;;;;;;5168453;27;45280;-67
2023/05/26 08:25:28;;;;;;;24.88;5.47;;;15.90;77.40;;;;;;5168553;27;45409;-68
2023/05/26 08:27:55;;;;;;;27.55;5.25;;;15.80;77.80;;;;;;5170115;27;45511;-67
2023/05/26 08:30:22;;;;;;;18.45;5.57;;;16.00;76.80;;;;;;5168656;27;45357;-68
2023/05/26 08:32:49;;;;;;;23.23;5.68;;;16.00;77.60;;;;;;5167156;27;45463;-68
2023/05/26 08:35:17;;;;;;;20.98;4.57;;;16.00;77.30;;;;;;5166874;27;45293;-67
2023/05/26 08:37:44;;;;;;;23.83;5.72;;;16.00;76.60;;;;;;5167812;27;47629;-68
2023/05/26 08:40:11;;;;;;;21.15;4.80;;;16.10;77.10;;;;;;5168035;27;46422;-68
2023/05/26 08:42:45;;;;;;;26.10;5.10;;;16.00;80.90;;;;;;5163523;27;45326;-68
2023/05/26 08:45:13;;;;;;;19.42;5.00;;;16.20;77.70;;;;;;5158772;27;45556;-68
2023/05/26 08:47:42;;;;;;;22.35;5.55;;;16.20;77.50;;;;;;5157788;27;46566;-67
2023/05/26 08:50:10;;;;;;;23.88;5.40;;;16.00;77.70;;;;;;5164912;27;45348;-66
2023/05/26 08:52:39;;;;;;;19.15;4.75;;;16.10;77.00;;;;;;5167106;27;45300;-66
2023/05/26 08:55:07;;;;;;;27.92;5.55;;;16.10;78.00;;;;;;5167455;27;45395;-67
2023/05/26 08:57:35;;;;;;;19.13;4.80;;;16.20;76.20;;;;;;5167591;27;47191;-67
2023/05/26 09:00:03;;;;;;;14.90;4.55;;;16.10;77.20;;;;;;5166991;27;45312;-68
2023/05/26 09:02:30;;;;;;;26.45;5.22;;;16.20;77.00;;;;;;5165383;27;45354;-66
2023/05/26 09:04:57;;;;;;;17.83;4.15;;;16.00;76.30;;;;;;5167504;27;45519;-67
2023/05/26 09:07:24;;;;;;;17.95;4.03;;;16.00;74.80;;;;;;5166985;27;48011;-66
2023/05/26 09:09:52;;;;;;;18.75;4.95;;;16.10;77.90;;;;;;5167278;27;45325;-67
2023/05/26 09:12:19;;;;;;;23.05;4.85;;;16.30;76.40;;;;;;5167518;27;45477;-67
2023/05/26 09:14:45;;;;;;;26.20;4.60;;;16.00;75.90;;;;;;5156777;27;45651;-67
2023/05/26 09:17:13;;;;;;;25.45;4.82;;;16.00;77.60;;;;;;5158464;27;46393;-66
2023/05/26 09:19:40;;;;;;;22.35;4.38;;;16.20;78.40;;;;;;5161957;27;46203;-67
2023/05/26 09:22:08;;;;;;;18.27;3.90;;;16.40;76.50;;;;;;5166093;27;45348;-67
2023/05/26 09:24:44;;;;;;;20.42;4.70;;;16.50;75.60;;;;;;5166735;27;45404;-68
2023/05/26 09:27:19;;;;;;;19.55;4.40;;;16.60;75.70;;;;;;5154441;27;48278;-67
2023/05/26 09:29:53;;;;;;;20.90;3.95;;;16.60;75.30;;;;;;5162022;27;45568;-66
2023/05/26 09:32:24;;;;;;;27.35;5.00;;;16.60;75.30;;;;;;5152000;27;45365;-66
2023/05/26 09:34:51;;;;;;;19.60;4.47;;;16.50;76.30;;;;;;5167454;27;45350;-67
2023/05/26 09:37:18;;;;;;;16.90;4.07;;;16.50;75.20;;;;;;5166462;27;46874;-67
2023/05/26 09:39:45;;;;;;;17.83;4.18;;;16.40;75.70;;;;;;5167145;27;45265;-67
2023/05/26 09:42:12;;;;;;;20.52;4.85;;;16.40;76.20;;;;;;5157560;27;45399;-67
2023/05/26 09:44:40;;;;;;;20.48;4.32;;;16.50;75.40;;;;;;5167020;27;45276;-67
2023/05/26 09:47:07;;;;;;;13.25;4.07;;;16.50;74.70;;;;;;5159981;27;47232;-67
2023/05/26 09:49:34;;;;;;;15.93;3.70;;;16.60;75.20;;;;;;5167472;27;45263;-68
2023/05/26 09:52:01;;;;;;;21.77;5.00;;;16.70;75.70;;;;;;5165372;27;45312;-68
2023/05/26 09:54:27;;;;;;;17.27;4.78;;;16.70;75.40;;;;;;5163293;27;45548;-68
2023/05/26 09:57:01;;;;;;;15.52;4.20;;;16.70;75.40;;;;;;5161908;27;46610;-68
2023/05/26 09:59:36;;;;;;;19.38;5.28;;;16.80;75.50;;;;;;5164241;27;45368;-68
2023/05/26 10:02:10;;;;;;;22.80;5.07;;;16.70;74.50;;;;;;5163470;27;45882;-68
2023/05/26 10:04:37;;;;;;;21.75;4.10;;;16.60;73.80;;;;;;5164356;27;45307;-68
2023/05/26 10:07:05;;;;;;;15.77;4.10;;;16.70;75.40;;;;;;5163082;27;46295;-68
2023/05/26 10:09:35;;;;;;;22.58;4.70;;;16.80;75.50;;;;;;5169301;27;45801;-68
2023/05/26 10:12:03;;;;;;;21.25;4.85;;;16.80;75.20;;;;;;5166270;27;45490;-68
2023/05/26 10:14:30;;;;;;;21.05;4.50;;;16.60;74.40;;;;;;5164245;27;45415;-68
2023/05/26 10:16:57;;;;;;;18.27;4.82;;;16.60;75.30;;;;;;5164072;27;47549;-66
2023/05/26 10:19:26;;;;;;;24.08;4.88;;;16.60;75.90;;;;;;5158607;27;45631;-67
2023/05/26 10:21:58;;;;;;;18.63;4.50;;;16.70;75.40;;;;;;5152297;27;45451;-67
2023/05/26 10:24:31;;;;;;;18.33;4.13;;;16.80;75.50;;;;;;5157512;27;45323;-67
2023/05/26 10:27:04;;;;;;;20.42;4.70;;;16.80;75.40;;;;;;5160035;27;46489;-67
2023/05/26 10:29:35;;;;;;;22.05;4.97;;;16.80;75.20;;;;;;5156674;27;45355;-66
2023/05/26 10:32:04;;;;;;;20.70;4.53;;;16.70;74.90;;;;;;5157349;27;45329;-67
2023/05/26 10:34:41;;;;;;;23.00;4.18;;;16.80;73.90;;;;;;5161982;27;45511;-68
2023/05/26 10:37:13;;;;;;;21.23;4.60;;;16.70;73.50;;;;;;5165157;27;46769;-67
2023/05/26 10:39:41;;;;;;;22.48;4.93;;;16.90;73.10;;;;;;5158890;27;45426;-67
2023/05/26 10:42:16;;;;;;;21.10;4.65;;;16.90;73.50;;;;;;5163554;27;45459;-67
2023/05/26 10:44:45;;;;;;;23.15;4.60;;;16.90;74.00;;;;;;5161123;27;45414;-68
2023/05/26 10:47:15;;;;;;;24.30;5.25;;;17.00;73.30;;;;;;5157191;27;48301;-67
2023/05/26 10:49:52;;;;;;;18.23;4.78;;;17.00;73.70;;;;;;5162245;27;45287;-68
2023/05/26 10:52:19;;;;;;;18.38;4.55;;;17.10;73.10;;;;;;5154335;27;45480;-67
2023/05/26 10:54:47;;;;;;;21.58;4.70;;;17.20;71.90;;;;;;5154122;27;45596;-67
2023/05/26 10:57:30;;;;;;;21.20;4.78;;;17.00;73.30;;;;;;5159767;27;47695;-67
2023/05/26 10:59:57;;;;;;;16.38;3.83;;;17.00;73.10;;;;;;5152798;27;45301;-67
2023/05/26 11:02:24;;;;;;;16.90;4.00;;;17.00;74.00;;;;;;5154557;27;45406;-68
2023/05/26 11:04:52;;;;;;;24.23;5.00;;;17.20;72.60;;;;;;5155118;27;45583;-69
2023/05/26 11:07:23;;;;;;;23.48;4.70;;;17.10;73.20;;;;;;5161072;27;47522;-68
2023/05/26 11:09:58;;;;;;;23.05;4.30;;;17.00;70.40;;;;;;5165543;27;45397;-69
2023/05/26 11:12:25;;;;;;;24.98;4.50;;;17.00;72.40;;;;;;5161527;27;45340;-69
2023/05/26 11:14:52;;;;;;;21.38;4.05;;;17.00;73.60;;;;;;5160197;27;45415;-68
2023/05/26 11:17:21;;;;;;;18.10;4.53;;;17.10;72.60;;;;;;5159490;27;46202;-68
2023/05/26 11:19:58;;;;;;;21.50;4.80;;;17.10;72.60;;;;;;5161641;27;45427;-68
2023/05/26 11:22:26;;;;;;;22.88;4.63;;;17.20;71.40;;;;;;5165612;27;45309;-68
2023/05/26 11:24:56;;;;;;;18.35;4.68;;;17.10;72.20;;;;;;5164214;27;45686;-68
2023/05/26 11:27:26;;;;;;;33.70;6.88;;;17.00;70.30;;;;;;5160568;27;45441;-68
2023/05/26 11:30:00;;;;;;;21.63;4.22;;;17.10;71.70;;;;;;5162079;27;45395;-68
2023/05/26 11:32:28;;;;;;;23.63;5.03;;;17.10;72.20;;;;;;5149841;27;45450;-68
2023/05/26 11:34:57;;;;;;;18.63;4.18;;;17.20;72.80;;;;;;5159322;27;45251;-68
2023/05/26 11:37:26;;;;;;;14.38;3.95;;;17.30;71.80;;;;;;5163832;27;47246;-69
2023/05/26 11:39:56;;;;;;;17.67;3.97;;;17.40;71.50;;;;;;5163644;27;45272;-68
2023/05/26 11:42:22;;;;;;;22.10;4.55;;;17.50;72.20;;;;;;5157204;27;45291;-68
2023/05/26 11:44:49;;;;;;;25.05;4.63;;;17.60;70.70;;;;;;5158872;27;45449;-68
2023/05/26 11:47:21;;;;;;;20.10;4.00;;;17.40;71.30;;;;;;5150476;27;47126;-69
2023/05/26 11:49:48;;;;;;;19.63;4.60;;;17.50;71.00;;;;;;5151014;27;45689;-68
2023/05/26 11:52:17;;;;;;;16.90;4.07;;;17.50;71.50;;;;;;5154536;27;45425;-68
2023/05/26 11:54:44;;;;;;;17.83;3.83;;;17.50;73.60;;;;;;5150122;27;45231;-68
2023/05/26 11:57:24;;;;;;;16.77;3.97;;;17.60;71.40;;;;;;5151252;27;48406;-69
2023/05/26 11:59:52;;;;;;;23.85;5.10;;;17.70;69.60;;;;;;5160837;27;45325;-67
2023/05/26 12:02:19;;;;;;;16.38;4.55;;;17.40;71.50;;;;;;5159138;27;45418;-67
2023/05/26 12:04:46;;;;;;;18.77;3.88;;;17.40;70.00;;;;;;5161762;27;45371;-67
2023/05/26 12:07:26;;;;;;;25.15;4.57;;;17.40;71.70;;;;;;5158090;27;48104;-67
2023/05/26 12:10:07;;;;;;;20.55;4.88;;;17.50;71.00;;;;;;5161710;27;45312;-69
2023/05/26 12:12:47;;;;;;;11.93;3.45;;;17.60;71.40;;;;;;5162393;27;45478;-67
2023/05/26 12:15:19;;;;;;;23.67;4.60;;;17.70;71.50;;;;;;5153689;27;45382;-67
2023/05/26 12:17:46;;;;;;;14.82;4.10;;;17.80;69.90;;;;;;5160723;27;45321;-67
2023/05/26 12:20:15;;;;;;;17.35;4.65;;;17.80;68.40;;;;;;5160630;27;45310;-67
2023/05/26 12:22:44;;;;;;;19.40;4.57;;;17.80;67.90;;;;;;5161191;27;45427;-67
2023/05/26 12:25:11;;;;;;;16.90;3.67;;;17.60;71.00;;;;;;5163841;27;45451;-68
2023/05/26 12:27:39;;;;;;;25.23;5.00;;;17.40;70.60;;;;;;5162104;27;46597;-68
2023/05/26 12:30:20;;;;;;;24.17;4.18;;;17.40;67.50;;;;;;5165760;27;45195;-68
2023/05/26 12:32:47;;;;;;;19.60;4.72;;;17.50;70.10;;;;;;5165276;27;45550;-67
2023/05/26 12:35:15;;;;;;;19.48;3.83;;;17.50;70.60;;;;;;5154671;27;45278;-67
2023/05/26 12:37:42;;;;;;;24.95;5.18;;;17.60;70.60;;;;;;5163715;27;47555;-67
2023/05/26 12:40:11;;;;;;;18.80;4.50;;;17.60;69.50;;;;;;5165500;27;46048;-69
2023/05/26 12:42:38;;;;;;;26.20;5.63;;;17.60;70.40;;;;;;5164132;27;45466;-67